Terminal Aerodrome Forecast
Issued by NWS

Home | Current Version | Previous Version | Text Only | Print | Product List | Glossary On
Versions: 1 2 3 4 5 6 7 8 9 10 11 12 13
510
FTUS42 TJSJ 260540
TAFJPS
TAF
TJPS 260540Z 2606/2706 05005KT P6SM FEW030 SCT080
     FM261330 13010G18KT P6SM FEW030 SCT080
     FM262330 05005KT P6SM FEW030 SCT070=

USA.gov is the U.S. government's official web portal to all federal, state and local government web resources and services.